Time;durP1;ratioP1;P1;durP2;ratioP2;P2;SDS_P1;SDS_P2;PMS_P1;PMS_P2;Temp;Humidity;BMP_temperature;BMP_pressure;BME280_temperature;BME280_humidity;BME280_pressure;Samples;Min_cycle;Max_cycle;Signal;HPM_P1;HPM_P2
2022/10/25 00:00:40;;;;;;;7.68;3.17;;;12.30;99.90;;;;;;5018485;28;20053;-53
2022/10/25 00:03:07;;;;;;;8.23;2.13;;;12.30;99.90;;;;;;5016851;28;20033;-52
2022/10/25 00:05:33;;;;;;;7.43;1.92;;;12.30;99.90;;;;;;5019209;28;20281;-50
2022/10/25 00:07:59;;;;;;;8.23;3.03;;;12.20;99.90;;;;;;5024546;28;20038;-55
2022/10/25 00:10:24;;;;;;;9.80;2.60;;;12.30;99.90;;;;;;5022683;28;20053;-51
2022/10/25 00:12:50;;;;;;;6.80;1.90;;;12.20;99.90;;;;;;5017831;28;20400;-50
2022/10/25 00:15:15;;;;;;;5.32;2.10;;;12.20;99.90;;;;;;5013882;28;20472;-52
2022/10/25 00:17:41;;;;;;;7.45;3.25;;;12.20;99.90;;;;;;5019305;28;20026;-54
2022/10/25 00:20:08;;;;;;;3.97;1.50;;;12.10;99.90;;;;;;5018638;28;20026;-56
2022/10/25 00:22:34;;;;;;;4.65;2.05;;;12.10;99.90;;;;;;5019243;28;20026;-53
2022/10/25 00:24:59;;;;;;;6.07;2.40;;;12.10;99.90;;;;;;5012586;28;20037;-54
2022/10/25 00:27:25;;;;;;;5.68;1.88;;;12.10;99.90;;;;;;5020020;28;20080;-53
2022/10/25 00:29:52;;;;;;;6.70;2.10;;;12.00;99.90;;;;;;5013728;28;20053;-52
2022/10/25 00:32:17;;;;;;;3.63;1.83;;;12.00;99.90;;;;;;5011909;28;20049;-52
2022/10/25 00:34:43;;;;;;;6.15;1.73;;;12.00;99.90;;;;;;5005906;28;20033;-54
2022/10/25 00:37:09;;;;;;;6.88;2.13;;;12.00;99.90;;;;;;5021005;28;20028;-50
2022/10/25 00:39:34;;;;;;;6.10;2.22;;;11.90;99.90;;;;;;5017548;28;20074;-52
2022/10/25 00:42:00;;;;;;;5.63;2.45;;;11.90;99.90;;;;;;5020253;28;20499;-51
2022/10/25 00:44:34;;;;;;;6.47;2.17;;;11.90;99.90;;;;;;5034172;28;20030;-50
2022/10/25 00:47:26;;;;;;;9.93;2.88;;;11.80;99.90;;;;;;5014273;28;20021;-54
2022/10/25 00:49:57;;;;;;;4.85;2.35;;;11.90;99.90;;;;;;5016939;28;20037;-51
2022/10/25 00:52:24;;;;;;;6.97;2.50;;;11.90;99.90;;;;;;5022167;28;20059;-52
2022/10/25 00:54:52;;;;;;;8.85;3.20;;;11.80;99.90;;;;;;5019054;28;20120;-51
2022/10/25 00:57:51;;;;;;;10.77;2.85;;;11.90;99.90;;;;;;5018130;28;20017;-53
2022/10/25 01:00:16;;;;;;;6.05;2.28;;;11.90;99.90;;;;;;5008462;28;20034;-56
2022/10/25 01:02:42;;;;;;;7.05;2.42;;;11.80;99.90;;;;;;5011409;28;20447;-52
2022/10/25 01:05:09;;;;;;;5.53;2.97;;;11.80;99.90;;;;;;5016341;28;20508;-51
2022/10/25 01:07:35;;;;;;;9.93;2.67;;;11.80;99.90;;;;;;5012276;28;20129;-57
2022/10/25 01:10:01;;;;;;;8.63;3.30;;;11.80;99.90;;;;;;5019598;28;20121;-50
2022/10/25 01:12:26;;;;;;;7.40;3.22;;;11.80;99.90;;;;;;5021205;28;20059;-54
2022/10/25 01:14:53;;;;;;;8.15;2.90;;;11.80;99.90;;;;;;5020540;28;20468;-50
2022/10/25 01:17:38;;;;;;;9.63;3.03;;;11.80;99.90;;;;;;5016423;28;20385;-51
2022/10/25 01:20:36;;;;;;;9.98;2.95;;;11.80;99.90;;;;;;5022639;28;20022;-51
2022/10/25 01:23:29;;;;;;;9.32;3.38;;;11.80;99.90;;;;;;5017845;28;20071;-51
2022/10/25 01:25:55;;;;;;;8.38;3.15;;;11.80;99.90;;;;;;5011611;28;22251;-56
2022/10/25 01:28:39;;;;;;;9.95;3.63;;;11.80;99.90;;;;;;5016384;28;20063;-51
2022/10/25 01:31:31;;;;;;;10.60;4.10;;;11.80;99.90;;;;;;5016527;28;20120;-51
2022/10/25 01:34:06;;;;;;;9.80;4.15;;;11.90;99.90;;;;;;5015507;28;20044;-50
2022/10/25 01:36:42;;;;;;;8.85;3.30;;;11.90;99.90;;;;;;5016866;28;20021;-53
2022/10/25 01:39:13;;;;;;;8.77;3.10;;;11.90;99.90;;;;;;5017149;28;20060;-53
2022/10/25 01:41:51;;;;;;;8.32;3.38;;;11.90;99.90;;;;;;5011542;28;20242;-49
2022/10/25 01:44:35;;;;;;;10.48;3.90;;;12.00;99.90;;;;;;5015937;28;20076;-51
2022/10/25 01:47:09;;;;;;;9.80;3.30;;;12.00;99.90;;;;;;5018342;28;20029;-52
2022/10/25 01:49:45;;;;;;;9.20;3.42;;;12.00;99.90;;;;;;5020265;28;20500;-54
2022/10/25 01:52:13;;;;;;;8.07;3.40;;;12.00;99.90;;;;;;5038893;22;20041;-49
2022/10/25 01:54:39;;;;;;;8.27;3.22;;;12.00;99.90;;;;;;5018932;28;20104;-50
2022/10/25 01:57:16;;;;;;;7.03;3.75;;;12.10;99.90;;;;;;5018210;28;20113;-50
2022/10/25 02:00:08;;;;;;;5.72;3.53;;;12.10;99.90;;;;;;5014619;28;20022;-54
2022/10/25 02:02:51;;;;;;;6.70;3.25;;;12.00;99.90;;;;;;5011871;28;20025;-49
2022/10/25 02:05:25;;;;;;;7.38;3.33;;;12.00;99.90;;;;;;5016328;28;20120;-52
2022/10/25 02:08:27;;;;;;;10.15;4.30;;;12.10;99.90;;;;;;5017930;28;20117;-51
2022/10/25 02:10:59;;;;;;;9.00;3.88;;;12.10;99.90;;;;;;5006935;28;20038;-49
2022/10/25 02:13:36;;;;;;;6.45;3.40;;;12.00;99.90;;;;;;5020654;28;20121;-52
2022/10/25 02:16:08;;;;;;;6.38;3.90;;;12.10;99.90;;;;;;5015670;28;20041;-48
2022/10/25 02:18:38;;;;;;;8.35;3.50;;;12.10;99.90;;;;;;5022544;28;20036;-49
2022/10/25 02:21:05;;;;;;;8.25;3.28;;;12.10;99.90;;;;;;5018178;28;20034;-50
2022/10/25 02:23:34;;;;;;;7.05;3.75;;;12.10;99.90;;;;;;5021914;28;20057;-48
2022/10/25 02:26:02;;;;;;;9.65;3.55;;;12.10;99.90;;;;;;5033407;28;20026;-49
2022/10/25 02:28:31;;;;;;;6.72;3.55;;;12.10;99.90;;;;;;5025897;28;20112;-48
2022/10/25 02:30:58;;;;;;;9.30;3.60;;;12.10;99.90;;;;;;5013343;28;20038;-51
2022/10/25 02:33:24;;;;;;;9.68;4.18;;;12.10;99.90;;;;;;5012449;28;20030;-48
2022/10/25 02:36:17;;;;;;;8.27;3.78;;;12.10;99.90;;;;;;5016913;28;20037;-49
2022/10/25 02:38:45;;;;;;;8.88;3.97;;;12.10;99.90;;;;;;5020654;28;20507;-49
2022/10/25 02:41:11;;;;;;;10.82;4.03;;;12.20;99.90;;;;;;5016927;28;20072;-54
2022/10/25 02:43:36;;;;;;;10.05;3.80;;;12.10;99.90;;;;;;5010450;28;20424;-51
2022/10/25 02:46:11;;;;;;;5.78;3.90;;;12.10;99.90;;;;;;5017838;28;20030;-50
2022/10/25 02:48:37;;;;;;;9.18;4.40;;;12.10;99.90;;;;;;5023107;28;20068;-51
2022/10/25 02:51:04;;;;;;;12.60;4.50;;;12.10;99.90;;;;;;5016317;28;20507;-49
2022/10/25 02:53:30;;;;;;;7.82;4.00;;;12.10;99.90;;;;;;5021997;28;20041;-50
2022/10/25 02:56:00;;;;;;;9.32;4.65;;;12.10;99.90;;;;;;5014599;28;20069;-49
2022/10/25 02:58:27;;;;;;;8.90;4.25;;;12.10;99.90;;;;;;5018686;28;20368;-49
2022/10/25 03:00:53;;;;;;;11.48;4.20;;;12.10;99.90;;;;;;5035454;28;20022;-50
2022/10/25 03:03:19;;;;;;;12.00;5.25;;;12.10;99.90;;;;;;5010872;28;20048;-52
2022/10/25 03:05:44;;;;;;;7.95;4.65;;;12.10;99.90;;;;;;5016340;28;21765;-52
2022/10/25 03:08:10;;;;;;;10.13;4.45;;;12.10;99.90;;;;;;5014976;28;20534;-49
2022/10/25 03:10:36;;;;;;;9.93;5.80;;;12.10;99.90;;;;;;5020501;28;20072;-49
2022/10/25 03:13:02;;;;;;;12.60;5.65;;;12.10;99.90;;;;;;5011850;28;20455;-49
2022/10/25 03:15:27;;;;;;;9.63;6.53;;;12.00;99.90;;;;;;5012198;28;20101;-48
2022/10/25 03:17:53;;;;;;;10.23;5.97;;;12.00;99.90;;;;;;5020498;28;20445;-49
2022/10/25 03:20:18;;;;;;;12.70;6.05;;;12.00;99.90;;;;;;5017339;28;20026;-52
2022/10/25 03:22:44;;;;;;;9.40;5.45;;;12.00;99.90;;;;;;5020226;28;20017;-52
2022/10/25 03:25:09;;;;;;;15.30;6.88;;;12.00;99.90;;;;;;5019668;28;20306;-48
2022/10/25 03:27:35;;;;;;;12.02;5.38;;;12.00;99.90;;;;;;5018800;28;20041;-52
2022/10/25 03:30:00;;;;;;;12.73;5.00;;;12.00;99.90;;;;;;5020385;28;20056;-49
2022/10/25 03:32:26;;;;;;;12.30;5.45;;;12.00;99.90;;;;;;5018934;28;20072;-48
2022/10/25 03:34:51;;;;;;;12.68;7.00;;;11.90;99.90;;;;;;5019729;28;20040;-49
2022/10/25 03:37:17;;;;;;;15.32;6.00;;;11.90;99.90;;;;;;5024711;28;20286;-55
2022/10/25 03:39:44;;;;;;;12.20;6.40;;;12.00;99.90;;;;;;5013648;28;20038;-48
2022/10/25 03:42:09;;;;;;;11.57;6.38;;;12.00;99.90;;;;;;5035069;28;20451;-50
2022/10/25 03:44:35;;;;;;;12.10;6.18;;;12.00;99.90;;;;;;5012986;28;20520;-50
2022/10/25 03:47:00;;;;;;;12.48;6.72;;;12.00;99.90;;;;;;5026754;28;20446;-48
2022/10/25 03:49:26;;;;;;;12.00;6.53;;;12.00;99.90;;;;;;5016453;28;20026;-50
2022/10/25 03:51:51;;;;;;;13.80;7.20;;;11.90;99.90;;;;;;5015122;28;20036;-54
2022/10/25 03:54:17;;;;;;;10.60;6.95;;;12.00;99.90;;;;;;5024614;28;20525;-48
2022/10/25 03:56:42;;;;;;;10.98;6.10;;;12.00;99.90;;;;;;5020441;28;20025;-48
2022/10/25 03:59:08;;;;;;;15.93;6.65;;;12.10;99.90;;;;;;5021303;28;20034;-50
2022/10/25 04:01:34;;;;;;;15.55;7.35;;;12.00;99.90;;;;;;5014016;28;20026;-48
2022/10/25 04:03:59;;;;;;;11.65;6.32;;;12.10;99.90;;;;;;5026030;28;20057;-49
2022/10/25 04:06:25;;;;;;;10.98;6.88;;;12.10;99.90;;;;;;5021139;28;20022;-50
2022/10/25 04:08:50;;;;;;;15.63;7.72;;;12.10;99.90;;;;;;5022404;28;20045;-49
2022/10/25 04:11:16;;;;;;;12.57;6.72;;;12.10;99.90;;;;;;5018715;28;20033;-50
2022/10/25 04:13:41;;;;;;;14.40;7.68;;;12.10;99.90;;;;;;5012489;28;20084;-49
2022/10/25 04:16:07;;;;;;;13.05;6.65;;;12.20;99.90;;;;;;5035499;28;20411;-49
2022/10/25 04:18:33;;;;;;;13.15;7.22;;;12.20;99.90;;;;;;5018895;28;20080;-51
2022/10/25 04:20:59;;;;;;;15.05;8.05;;;12.20;99.90;;;;;;5026007;28;20415;-48
2022/10/25 04:23:25;;;;;;;13.85;7.30;;;12.30;99.90;;;;;;5018417;28;20028;-48
2022/10/25 04:25:55;;;;;;;17.30;7.38;;;12.30;99.90;;;;;;5018167;28;20033;-49
2022/10/25 04:28:22;;;;;;;14.45;7.63;;;12.30;99.90;;;;;;5023119;28;20474;-48
2022/10/25 04:30:47;;;;;;;13.13;6.32;;;12.30;99.90;;;;;;5019379;28;20033;-49
2022/10/25 04:33:13;;;;;;;12.90;7.45;;;12.30;99.90;;;;;;5018524;28;20033;-51
2022/10/25 04:35:38;;;;;;;10.90;6.72;;;12.20;99.90;;;;;;5015954;28;20025;-51
2022/10/25 04:38:04;;;;;;;15.25;6.97;;;12.20;99.90;;;;;;5016219;28;20025;-50
2022/10/25 04:40:29;;;;;;;12.75;6.78;;;12.20;99.90;;;;;;5037584;28;20068;-50
2022/10/25 04:42:55;;;;;;;14.38;6.88;;;12.20;99.90;;;;;;5018369;28;20025;-53
2022/10/25 04:45:21;;;;;;;14.52;6.57;;;12.20;99.90;;;;;;5022140;28;20064;-50
2022/10/25 04:47:47;;;;;;;16.63;7.05;;;12.20;99.90;;;;;;5017433;28;20032;-48
2022/10/25 04:50:12;;;;;;;20.10;6.18;;;12.20;99.90;;;;;;5021899;28;20392;-50
2022/10/25 04:52:38;;;;;;;11.48;6.93;;;12.20;99.90;;;;;;5022362;28;20038;-51
2022/10/25 04:55:04;;;;;;;12.23;6.45;;;12.20;99.90;;;;;;5019604;28;20037;-54
2022/10/25 04:57:29;;;;;;;11.50;6.68;;;12.30;99.90;;;;;;5019289;28;20020;-51
2022/10/25 04:59:56;;;;;;;13.20;8.32;;;12.30;99.90;;;;;;5019565;28;20030;-48
2022/10/25 05:02:22;;;;;;;17.58;7.95;;;12.30;99.90;;;;;;5019507;28;20021;-48
2022/10/25 05:04:48;;;;;;;11.73;7.97;;;12.30;99.90;;;;;;5018168;28;20073;-52
2022/10/25 05:07:17;;;;;;;15.98;7.53;;;12.40;99.90;;;;;;5021758;28;20045;-50
2022/10/25 05:09:42;;;;;;;12.88;7.78;;;12.40;99.90;;;;;;5018493;28;20443;-48
2022/10/25 05:12:08;;;;;;;11.75;6.60;;;12.40;99.90;;;;;;5021095;28;20029;-49
2022/10/25 05:14:33;;;;;;;13.20;8.15;;;12.40;99.90;;;;;;5016756;28;20034;-50
2022/10/25 05:16:59;;;;;;;10.00;6.75;;;12.40;99.90;;;;;;5019608;28;20045;-52
2022/10/25 05:19:25;;;;;;;16.88;7.55;;;12.40;99.90;;;;;;5018328;28;20037;-48
2022/10/25 05:21:50;;;;;;;11.15;7.07;;;12.40;99.90;;;;;;5018611;28;20022;-52
2022/10/25 05:24:16;;;;;;;16.75;7.80;;;12.40;99.90;;;;;;5019349;28;20028;-49
2022/10/25 05:26:42;;;;;;;14.60;7.30;;;12.40;99.90;;;;;;5016645;28;20018;-49
2022/10/25 05:29:11;;;;;;;10.98;7.68;;;12.40;99.90;;;;;;5019545;28;20034;-50
2022/10/25 05:31:39;;;;;;;11.27;7.13;;;12.40;99.90;;;;;;5010896;28;20041;-49
2022/10/25 05:34:05;;;;;;;9.85;6.68;;;12.40;99.90;;;;;;5019479;28;20029;-51
2022/10/25 05:36:32;;;;;;;13.43;7.40;;;12.40;99.90;;;;;;5021471;28;20476;-50
2022/10/25 05:38:59;;;;;;;10.70;6.30;;;12.40;99.90;;;;;;5013169;28;20026;-50
2022/10/25 05:41:26;;;;;;;15.35;7.50;;;12.40;99.90;;;;;;5016971;28;20163;-52
2022/10/25 05:43:51;;;;;;;7.95;6.30;;;12.40;99.90;;;;;;5014913;28;20022;-50
2022/10/25 05:46:22;;;;;;;10.57;6.32;;;12.40;99.90;;;;;;5017464;28;20076;-49
2022/10/25 05:48:49;;;;;;;16.20;6.78;;;12.40;99.90;;;;;;5014113;28;20026;-49
2022/10/25 05:51:21;;;;;;;12.18;7.13;;;12.40;99.90;;;;;;5008863;28;20036;-48
2022/10/25 05:53:49;;;;;;;12.82;7.72;;;12.40;99.90;;;;;;5013232;28;20056;-48
2022/10/25 05:56:15;;;;;;;14.48;8.32;;;12.40;99.90;;;;;;5019044;28;20033;-50
2022/10/25 05:58:41;;;;;;;16.55;7.63;;;12.40;99.90;;;;;;5037761;28;20079;-49
2022/10/25 06:01:09;;;;;;;11.82;7.30;;;12.40;99.90;;;;;;5021381;28;20147;-48
2022/10/25 06:03:35;;;;;;;13.55;8.25;;;12.40;99.90;;;;;;5021585;28;20020;-52
2022/10/25 06:06:02;;;;;;;14.48;8.32;;;12.50;99.90;;;;;;5018740;28;20072;-49
2022/10/25 06:08:29;;;;;;;14.15;8.40;;;12.50;99.90;;;;;;5008884;28;20395;-48
2022/10/25 06:11:10;;;;;;;13.15;7.90;;;12.50;99.90;;;;;;5032562;28;20026;-49
2022/10/25 06:13:36;;;;;;;11.18;7.72;;;12.50;99.90;;;;;;5010875;28;20029;-50
2022/10/25 06:16:07;;;;;;;13.32;8.20;;;12.50;99.90;;;;;;5017304;28;20044;-50
2022/10/25 06:18:34;;;;;;;19.92;8.45;;;12.50;99.90;;;;;;5018259;28;20030;-50
2022/10/25 06:21:02;;;;;;;13.65;8.35;;;12.50;99.90;;;;;;5017042;28;20161;-50
2022/10/25 06:23:30;;;;;;;14.75;8.43;;;12.50;99.90;;;;;;5019388;28;20010;-50
2022/10/25 06:25:59;;;;;;;15.43;8.98;;;12.60;99.90;;;;;;5017548;28;20517;-49
2022/10/25 06:28:24;;;;;;;15.00;8.80;;;12.60;99.90;;;;;;5019460;28;20030;-50
2022/10/25 06:30:50;;;;;;;11.27;8.35;;;12.60;99.90;;;;;;5016022;28;20033;-52
2022/10/25 06:33:15;;;;;;;11.65;8.18;;;12.60;99.90;;;;;;5021735;28;20053;-49
2022/10/25 06:35:41;;;;;;;13.52;10.13;;;12.60;99.90;;;;;;5017512;28;20030;-51
2022/10/25 06:38:06;;;;;;;16.05;9.48;;;12.60;99.90;;;;;;5016461;28;20030;-49
2022/10/25 06:40:34;;;;;;;13.27;8.75;;;12.60;99.90;;;;;;5014633;28;20068;-50
2022/10/25 06:42:59;;;;;;;18.25;10.25;;;12.60;99.90;;;;;;5011444;28;20555;-52
2022/10/25 06:45:25;;;;;;;14.85;9.45;;;12.60;99.90;;;;;;5013840;28;20038;-51
2022/10/25 06:47:51;;;;;;;15.43;9.15;;;12.60;99.90;;;;;;5021249;28;20599;-53
2022/10/25 06:50:16;;;;;;;12.05;9.13;;;12.60;99.90;;;;;;5020500;28;20045;-52
2022/10/25 06:52:42;;;;;;;14.23;10.43;;;12.60;99.90;;;;;;5020221;28;20030;-49
2022/10/25 06:55:08;;;;;;;14.88;8.45;;;12.60;99.90;;;;;;5019654;28;20097;-49
2022/10/25 06:57:33;;;;;;;16.63;9.85;;;12.60;99.90;;;;;;5021676;28;20033;-52
2022/10/25 06:59:59;;;;;;;16.02;9.27;;;12.60;99.90;;;;;;5017778;28;20052;-49
2022/10/25 07:02:26;;;;;;;14.48;9.57;;;12.60;99.90;;;;;;5019236;28;20048;-53
2022/10/25 07:04:51;;;;;;;13.93;9.35;;;12.60;99.90;;;;;;5022604;28;20208;-49
2022/10/25 07:07:16;;;;;;;14.95;9.85;;;12.70;99.90;;;;;;5024467;28;20479;-51
2022/10/25 07:09:42;;;;;;;24.58;10.85;;;12.70;99.90;;;;;;5024387;28;20033;-49
2022/10/25 07:12:08;;;;;;;15.60;9.45;;;12.70;99.90;;;;;;5021716;28;20335;-49
2022/10/25 07:14:33;;;;;;;13.90;9.57;;;12.70;99.90;;;;;;5023933;28;20476;-49
2022/10/25 07:16:59;;;;;;;21.48;10.43;;;12.70;99.90;;;;;;5021192;28;20100;-51
2022/10/25 07:19:24;;;;;;;13.38;9.07;;;12.70;99.90;;;;;;5024257;28;20027;-49
2022/10/25 07:21:50;;;;;;;16.92;10.02;;;12.70;99.90;;;;;;5020724;28;20014;-53
2022/10/25 07:24:16;;;;;;;19.80;11.32;;;12.80;99.90;;;;;;5024039;28;20082;-52
2022/10/25 07:26:42;;;;;;;15.00;10.27;;;12.80;99.90;;;;;;5024346;28;20124;-54
2022/10/25 07:29:08;;;;;;;20.25;10.95;;;12.80;99.90;;;;;;5024396;28;20049;-50
2022/10/25 07:31:37;;;;;;;18.75;10.00;;;12.90;99.90;;;;;;5022166;28;20180;-52
2022/10/25 07:34:04;;;;;;;16.52;9.95;;;12.90;99.90;;;;;;5022486;28;20030;-52
2022/10/25 07:36:30;;;;;;;15.30;10.50;;;12.90;99.90;;;;;;5023375;28;20026;-51
2022/10/25 07:38:56;;;;;;;18.48;10.73;;;12.90;99.90;;;;;;5022605;28;20372;-49
2022/10/25 07:41:22;;;;;;;14.27;9.80;;;12.90;99.90;;;;;;5018030;28;20022;-49
2022/10/25 07:43:48;;;;;;;15.32;10.77;;;12.90;99.90;;;;;;5023537;28;20013;-48
2022/10/25 07:46:13;;;;;;;19.25;11.80;;;13.00;99.90;;;;;;5019833;28;20038;-51
2022/10/25 07:48:39;;;;;;;14.57;11.25;;;13.00;99.90;;;;;;5023167;28;20047;-52
2022/10/25 07:51:07;;;;;;;16.58;10.18;;;13.00;99.90;;;;;;5044073;22;20042;-59
2022/10/25 07:53:33;;;;;;;14.43;10.32;;;13.10;99.90;;;;;;5012640;28;20109;-51
2022/10/25 07:55:59;;;;;;;14.68;10.60;;;13.10;99.90;;;;;;5015966;28;20113;-51
2022/10/25 07:58:24;;;;;;;16.10;11.95;;;13.10;99.90;;;;;;5016517;28;20026;-50
2022/10/25 08:00:50;;;;;;;18.60;11.25;;;13.20;99.90;;;;;;5022968;28;20357;-51
2022/10/25 08:03:16;;;;;;;15.70;11.77;;;13.20;99.90;;;;;;5002280;28;20045;-54
2022/10/25 08:05:46;;;;;;;17.05;10.77;;;13.20;99.90;;;;;;5007384;28;20112;-50
2022/10/25 08:08:12;;;;;;;18.60;12.50;;;13.20;99.90;;;;;;5003645;28;20018;-55
2022/10/25 08:10:40;;;;;;;18.55;11.98;;;13.20;99.90;;;;;;5008657;28;20033;-54
2022/10/25 08:13:05;;;;;;;15.73;11.45;;;13.20;99.90;;;;;;5002138;28;20041;-51
2022/10/25 08:15:31;;;;;;;14.50;11.23;;;13.30;99.90;;;;;;4998858;28;20484;-51
2022/10/25 08:18:00;;;;;;;16.45;11.65;;;13.30;99.90;;;;;;5006483;28;20528;-54
2022/10/25 08:20:26;;;;;;;17.48;12.52;;;13.40;99.90;;;;;;4995558;28;20442;-52
2022/10/25 08:22:55;;;;;;;14.77;11.20;;;13.40;99.90;;;;;;5007166;28;20037;-52
2022/10/25 08:25:21;;;;;;;30.70;11.23;;;13.40;99.90;;;;;;4997729;28;20033;-50
2022/10/25 08:27:46;;;;;;;14.77;10.15;;;13.50;99.90;;;;;;5006694;28;20117;-52
2022/10/25 08:30:12;;;;;;;14.35;9.70;;;13.60;99.90;;;;;;4995196;28;20022;-53
2022/10/25 08:32:38;;;;;;;15.02;10.55;;;13.70;99.90;;;;;;5003632;28;20037;-56
2022/10/25 08:35:04;;;;;;;15.38;10.68;;;13.80;99.90;;;;;;4999288;28;20604;-53
2022/10/25 08:37:30;;;;;;;14.75;10.98;;;13.80;99.90;;;;;;5004987;28;20393;-54
2022/10/25 08:39:55;;;;;;;18.02;11.30;;;13.80;99.90;;;;;;5000059;28;20025;-50
2022/10/25 08:42:49;;;;;;;17.38;11.10;;;13.90;99.90;;;;;;5006740;28;20026;-53
2022/10/25 08:45:37;;;;;;;16.15;9.52;;;13.90;99.90;;;;;;4987812;28;20037;-50
2022/10/25 08:48:10;;;;;;;16.30;9.40;;;14.00;99.90;;;;;;5005729;28;20045;-52
2022/10/25 08:50:46;;;;;;;14.00;9.18;;;14.00;99.90;;;;;;5004264;28;20432;-50
2022/10/25 08:53:24;;;;;;;16.65;9.27;;;14.00;99.90;;;;;;5006852;28;20026;-52
2022/10/25 08:55:50;;;;;;;12.85;9.50;;;14.00;99.90;;;;;;5004797;28;20046;-56
2022/10/25 08:58:23;;;;;;;12.90;10.10;;;14.00;99.90;;;;;;5000379;28;20026;-53
2022/10/25 09:00:48;;;;;;;17.88;9.60;;;14.10;99.90;;;;;;5005850;28;20088;-51
2022/10/25 09:03:23;;;;;;;14.60;8.90;;;14.20;99.90;;;;;;4992763;28;20030;-51
2022/10/25 09:06:07;;;;;;;14.70;8.73;;;14.20;99.90;;;;;;5000241;28;20109;-54
2022/10/25 09:09:15;;;;;;;15.90;8.35;;;14.30;99.90;;;;;;5002125;28;20125;-52
2022/10/25 09:11:55;;;;;;;20.52;8.95;;;14.30;99.90;;;;;;4999900;28;20058;-51
2022/10/25 09:14:33;;;;;;;12.60;8.25;;;14.30;99.90;;;;;;4987966;28;20164;-52
2022/10/25 09:16:59;;;;;;;14.00;7.75;;;14.30;99.90;;;;;;5000253;28;20152;-51
2022/10/25 09:19:34;;;;;;;12.48;8.65;;;14.40;99.90;;;;;;5002330;28;20437;-50
2022/10/25 09:22:02;;;;;;;10.98;8.02;;;14.40;99.90;;;;;;5003050;28;20385;-53
2022/10/25 09:24:50;;;;;;;10.57;7.63;;;14.40;99.90;;;;;;4997083;28;20018;-51
2022/10/25 09:27:31;;;;;;;12.43;7.30;;;14.40;99.90;;;;;;5006858;28;20424;-54
2022/10/25 09:30:06;;;;;;;9.95;6.88;;;14.40;99.90;;;;;;5001864;28;20208;-51
2022/10/25 09:32:43;;;;;;;11.65;7.90;;;14.40;99.90;;;;;;5000515;28;20029;-51
2022/10/25 09:35:34;;;;;;;11.02;6.70;;;14.50;99.90;;;;;;5000270;28;20102;-51
2022/10/25 09:38:19;;;;;;;9.68;6.68;;;14.60;99.90;;;;;;5002125;28;20056;-50
2022/10/25 09:40:48;;;;;;;13.45;6.97;;;14.60;99.90;;;;;;4999946;28;20105;-53
2022/10/25 09:43:18;;;;;;;11.07;6.75;;;14.60;99.90;;;;;;4988438;28;20472;-51
2022/10/25 09:45:50;;;;;;;11.05;6.43;;;14.60;99.90;;;;;;5001654;28;20104;-50
2022/10/25 09:48:47;;;;;;;12.73;6.80;;;14.60;99.90;;;;;;4990034;28;20491;-50
2022/10/25 09:51:28;;;;;;;13.30;6.55;;;14.60;99.90;;;;;;4978514;28;20408;-51
2022/10/25 09:53:55;;;;;;;9.77;6.18;;;14.70;99.90;;;;;;5007213;28;20025;-52
2022/10/25 09:56:20;;;;;;;8.85;6.35;;;14.70;99.90;;;;;;4996117;28;20057;-53
2022/10/25 09:58:46;;;;;;;11.70;5.75;;;14.70;99.90;;;;;;4999884;28;20477;-51
2022/10/25 10:01:27;;;;;;;12.57;5.15;;;14.60;99.90;;;;;;5002223;28;20018;-50
2022/10/25 10:04:03;;;;;;;10.30;4.60;;;14.60;99.90;;;;;;5005475;28;20095;-50
2022/10/25 10:06:36;;;;;;;11.27;4.80;;;14.70;99.90;;;;;;5001749;28;20516;-49
2022/10/25 10:09:10;;;;;;;9.00;5.13;;;14.70;99.90;;;;;;5007247;28;20026;-51
2022/10/25 10:11:36;;;;;;;11.40;3.97;;;14.70;99.90;;;;;;5000630;28;20061;-51
2022/10/25 10:14:29;;;;;;;11.02;3.65;;;14.80;99.90;;;;;;4999533;28;20034;-54
2022/10/25 10:16:56;;;;;;;8.52;3.35;;;14.80;99.90;;;;;;5001857;28;20038;-49
2022/10/25 10:19:24;;;;;;;10.48;5.15;;;14.90;99.90;;;;;;5002298;28;20025;-53
2022/10/25 10:21:56;;;;;;;8.10;3.67;;;14.80;99.90;;;;;;5003163;28;20058;-50
2022/10/25 10:24:28;;;;;;;5.13;3.40;;;14.80;99.90;;;;;;5000748;28;20105;-50
2022/10/25 10:26:57;;;;;;;7.90;3.40;;;14.80;99.90;;;;;;5001297;28;20029;-55
2022/10/25 10:29:26;;;;;;;8.40;3.80;;;14.80;99.90;;;;;;5002033;28;20014;-53
2022/10/25 10:31:58;;;;;;;9.63;3.53;;;14.80;99.90;;;;;;4994147;28;20145;-50
2022/10/25 10:34:41;;;;;;;11.20;4.10;;;14.90;99.90;;;;;;5003354;28;20080;-53
2022/10/25 10:37:15;;;;;;;6.32;3.78;;;14.90;99.90;;;;;;5009140;28;20084;-52
2022/10/25 10:39:54;;;;;;;11.25;3.95;;;14.90;99.90;;;;;;5001363;28;20512;-50
2022/10/25 10:42:22;;;;;;;7.05;3.42;;;14.90;99.90;;;;;;5000070;28;20017;-54
2022/10/25 10:45:01;;;;;;;10.55;3.90;;;14.80;99.90;;;;;;5001936;28;20022;-50
2022/10/25 10:47:31;;;;;;;11.52;3.42;;;14.80;99.90;;;;;;4998304;28;20029;-54
2022/10/25 10:49:57;;;;;;;7.78;3.40;;;14.80;99.90;;;;;;5001794;28;20378;-53
2022/10/25 10:52:30;;;;;;;15.80;4.00;;;14.90;99.90;;;;;;5011955;28;20033;-53
2022/10/25 10:54:58;;;;;;;5.13;3.33;;;14.90;99.90;;;;;;5001356;28;20026;-53
2022/10/25 10:57:31;;;;;;;9.90;3.90;;;14.80;99.90;;;;;;5003576;28;20357;-55
2022/10/25 10:59:58;;;;;;;6.22;3.28;;;14.90;99.90;;;;;;5001315;28;20026;-54
2022/10/25 11:02:37;;;;;;;11.98;4.43;;;14.80;99.90;;;;;;5005332;28;20072;-51
2022/10/25 11:05:18;;;;;;;7.60;4.00;;;14.90;99.90;;;;;;5001438;28;20034;-52
2022/10/25 11:07:43;;;;;;;9.00;3.22;;;14.90;99.90;;;;;;5006331;28;20021;-53
2022/10/25 11:10:14;;;;;;;7.28;3.55;;;14.90;99.90;;;;;;5002492;28;20132;-53
2022/10/25 11:12:41;;;;;;;12.10;3.17;;;14.90;99.90;;;;;;5003210;28;20028;-52
2022/10/25 11:15:13;;;;;;;6.97;3.60;;;14.90;99.90;;;;;;4996934;28;20026;-52
2022/10/25 11:17:47;;;;;;;7.95;3.40;;;14.90;99.90;;;;;;5000082;28;20073;-50
2022/10/25 11:20:24;;;;;;;7.97;3.35;;;15.00;99.90;;;;;;5001739;28;20448;-50
2022/10/25 11:22:54;;;;;;;;;;;15.00;99.90;;;;;;5007269;28;20500;-54
2022/10/25 11:25:24;;;;;;;8.30;3.47;;;15.00;99.90;;;;;;4993384;28;19914;-51
2022/10/25 11:28:04;;;;;;;5.82;3.47;;;15.10;99.90;;;;;;5004730;28;20064;-56
2022/10/25 11:30:56;;;;;;;12.55;3.92;;;15.10;99.90;;;;;;5000787;28;20311;-52
2022/10/25 11:33:49;;;;;;;12.25;3.20;;;15.20;99.90;;;;;;4984461;28;20456;-51
2022/10/25 11:36:33;;;;;;;2.92;2.60;;;15.20;99.90;;;;;;5000962;28;20018;-52
2022/10/25 11:39:30;;;;;;;11.85;3.03;;;15.30;99.90;;;;;;5000733;28;20026;-51
2022/10/25 11:42:09;;;;;;;3.45;1.95;;;15.50;99.90;;;;;;5006023;28;20026;-51
2022/10/25 11:44:59;;;;;;;5.63;2.55;;;15.60;99.90;;;;;;4997782;28;20377;-54
2022/10/25 11:47:33;;;;;;;6.15;2.50;;;15.60;99.90;;;;;;4998986;28;20025;-52
2022/10/25 11:50:16;;;;;;;3.90;1.73;;;15.70;99.90;;;;;;4999112;28;20038;-50
2022/10/25 11:53:24;;;;;;;3.78;2.25;;;15.60;99.90;;;;;;5008570;28;20026;-50
2022/10/25 11:56:22;;;;;;;7.88;2.60;;;15.60;99.90;;;;;;4998780;28;20030;-54
2022/10/25 11:59:08;;;;;;;6.78;1.80;;;15.70;99.90;;;;;;5006183;28;20033;-51
2022/10/25 12:02:02;;;;;;;7.15;2.15;;;15.70;99.90;;;;;;4999665;28;20385;-52
2022/10/25 12:04:52;;;;;;;7.78;1.88;;;15.70;99.90;;;;;;4999577;28;20025;-51
2022/10/25 12:07:58;;;;;;;7.57;3.40;;;15.70;99.90;;;;;;4987254;28;20246;-52
2022/10/25 12:10:42;;;;;;;3.15;1.60;;;15.60;99.90;;;;;;5007138;28;20022;-51
2022/10/25 12:13:39;;;;;;;3.22;1.65;;;15.60;99.90;;;;;;4992446;28;20093;-53
2022/10/25 12:16:13;;;;;;;8.63;2.75;;;15.60;99.90;;;;;;4993091;28;20511;-51
2022/10/25 12:18:49;;;;;;;3.00;1.55;;;15.60;99.90;;;;;;5001336;28;20437;-50
2022/10/25 12:21:21;;;;;;;13.32;2.33;;;15.70;99.90;;;;;;4993489;28;20037;-53
2022/10/25 12:23:50;;;;;;;6.13;1.95;;;15.70;99.90;;;;;;5001967;28;20437;-54
2022/10/25 12:26:33;;;;;;;5.32;2.40;;;15.90;99.90;;;;;;4991973;28;20038;-51
2022/10/25 12:29:09;;;;;;;4.03;1.85;;;15.90;99.90;;;;;;5003057;28;20282;-49
2022/10/25 12:31:39;;;;;;;9.02;2.47;;;16.00;99.90;;;;;;4997262;28;20437;-51
2022/10/25 12:34:15;;;;;;;5.97;2.30;;;16.20;99.90;;;;;;5003585;28;20109;-53
2022/10/25 12:36:52;;;;;;;4.85;1.90;;;16.30;99.90;;;;;;4998387;28;20026;-51
2022/10/25 12:39:29;;;;;;;7.57;2.80;;;16.40;99.90;;;;;;4997048;28;20040;-53
2022/10/25 12:42:03;;;;;;;5.63;2.58;;;16.40;99.90;;;;;;5005299;28;20049;-53
2022/10/25 12:44:51;;;;;;;5.30;1.98;;;16.40;99.90;;;;;;5001216;28;20029;-53
2022/10/25 12:47:43;;;;;;;5.32;2.10;;;16.50;99.90;;;;;;4997017;28;20028;-52
2022/10/25 12:50:39;;;;;;;2.30;1.83;;;16.40;99.90;;;;;;5002184;28;20115;-50
2022/10/25 12:53:26;;;;;;;9.10;2.10;;;16.40;99.90;;;;;;5006389;28;20030;-54
2022/10/25 12:56:13;;;;;;;7.18;2.08;;;16.40;99.90;;;;;;5002639;28;20137;-51
2022/10/25 12:58:41;;;;;;;6.97;2.88;;;16.30;99.90;;;;;;4997032;28;20022;-53
2022/10/25 13:01:41;;;;;;;5.10;2.13;;;16.30;99.90;;;;;;5003623;28;20536;-50